Terminal Aerodrome Forecast
Issued by NWS

Home | Current Version | Previous Version | Text Only | Print | Product List | Glossary On
Versions: 1 2 3 4 5 6 7 8 9 10 11 12 13 14 15 16 17 18 19 20
000
FTUS46 KSEW 242116 AAA
TAFOLM
TAF AMD
KOLM 242116Z 2421/2518 VRB03KT P6SM FEW040 BKN110 BKN200
     FM250200 VRB03KT P6SM BKN110 BKN200
     FM251200 00000KT 3SM MIFG SCT200=

USA.gov is the U.S. government's official web portal to all federal, state and local government web resources and services.